Time;durP1;ratioP1;P1;durP2;ratioP2;P2;SDS_P1;SDS_P2;PMS_P1;PMS_P2;Temp;Humidity;BMP_temperature;BMP_pressure;BME280_temperature;BME280_humidity;BME280_pressure;Samples;Min_cycle;Max_cycle;Signal;HPM_P1;HPM_P2
2023/11/16 00:00:23;;;;;;;;;7.00;6.67;;;;;16.37;100.00;101336.19;2105132;28;46052;-56
2023/11/16 00:01:27;;;;;;;;;7.00;5.67;;;;;16.37;100.00;101341.53;2106676;28;46819;-59
2023/11/16 00:02:28;;;;;;;;;6.00;5.25;;;;;16.36;100.00;101337.97;2105498;28;46535;-56
2023/11/16 00:03:28;;;;;;;;;6.67;6.33;;;;;16.35;100.00;101338.91;2105886;28;46771;-54
2023/11/16 00:04:28;;;;;;;;;5.33;5.00;;;;;16.37;100.00;101337.06;2096621;28;46777;-54
2023/11/16 00:05:29;;;;;;;;;5.67;5.67;;;;;16.36;100.00;101337.97;2091799;28;46381;-55
2023/11/16 00:06:29;;;;;;;;;7.67;6.00;;;;;16.36;100.00;101337.97;2098035;28;46659;-55
2023/11/16 00:07:33;;;;;;;;;9.00;6.00;;;;;16.36;100.00;101324.59;2096703;28;46346;-52
2023/11/16 00:08:35;;;;;;;;;5.75;5.75;;;;;16.37;100.00;101330.81;2097168;28;46757;-59
2023/11/16 00:09:36;;;;;;;;;6.00;6.00;;;;;16.37;100.00;101322.78;2097602;28;46397;-57
2023/11/16 00:10:37;;;;;;;;;6.00;5.50;;;;;16.36;100.00;101326.41;2103760;28;46561;-56
2023/11/16 00:11:40;;;;;;;;;6.67;6.67;;;;;16.37;100.00;101328.16;2095073;28;46329;-50
2023/11/16 00:12:40;;;;;;;;;6.00;6.00;;;;;16.37;100.00;101325.47;2089150;28;46859;-55
2023/11/16 00:13:41;;;;;;;;;7.00;7.00;;;;;16.35;100.00;101325.53;2101227;28;46311;-54
2023/11/16 00:14:41;;;;;;;;;10.25;9.00;;;;;16.35;100.00;101317.50;2105982;27;45994;-53
2023/11/16 00:15:41;;;;;;;;;10.00;8.00;;;;;16.34;100.00;101315.75;2105706;27;46186;-54
2023/11/16 00:16:44;;;;;;;;;10.00;10.00;;;;;16.32;100.00;101304.22;2103104;28;46502;-56
2023/11/16 00:17:44;;;;;;;;;11.00;9.25;;;;;16.33;100.00;101307.75;2097240;28;46446;-56
2023/11/16 00:18:46;;;;;;;;;10.00;8.33;;;;;16.32;100.00;101308.69;2103844;28;46180;-55
2023/11/16 00:19:47;;;;;;;;;8.00;8.00;;;;;16.32;100.00;101301.53;2096917;28;46490;-52
2023/11/16 00:20:47;;;;;;;;;10.00;9.67;;;;;16.33;100.00;101305.09;2096851;28;46360;-55
2023/11/16 00:21:47;;;;;;;;;14.25;14.00;;;;;16.33;100.00;101297.06;2105565;28;46971;-54
2023/11/16 00:22:48;;;;;;;;;19.00;18.25;;;;;16.31;100.00;101294.44;2105822;28;46359;-55
2023/11/16 00:23:48;;;;;;;;;28.00;27.25;;;;;16.31;100.00;101291.75;2104437;28;46278;-54
2023/11/16 00:24:49;;;;;;;;;33.00;31.50;;;;;16.33;100.00;101286.34;2088793;28;46285;-52
2023/11/16 00:25:49;;;;;;;;;64.00;51.00;;;;;16.34;100.00;101280.91;2096394;28;45286;-55
2023/11/16 00:26:50;;;;;;;;;44.50;38.00;;;;;16.32;100.00;101279.22;2090137;28;46711;-52
2023/11/16 00:27:50;;;;;;;;;60.20;48.60;;;;;16.37;100.00;101282.59;2088006;28;46436;-54
2023/11/16 00:28:54;;;;;;;;;74.50;68.00;;;;;16.39;100.00;101276.28;2086471;28;46151;-50
2023/11/16 00:29:54;;;;;;;;;78.50;75.00;;;;;16.41;100.00;101273.53;2087824;28;47062;-53
2023/11/16 00:30:55;;;;;;;;;72.25;62.25;;;;;16.43;100.00;101269.88;2087496;28;46568;-52
2023/11/16 00:31:55;;;;;;;;;41.75;36.00;;;;;16.44;100.00;101271.63;2081418;28;47092;-55
2023/11/16 00:32:56;;;;;;;;;55.25;44.75;;;;;16.46;100.00;101268.88;2083322;28;46730;-56
2023/11/16 00:33:57;;;;;;;;;62.75;51.50;;;;;16.46;100.00;101266.19;2088099;28;46001;-57
2023/11/16 00:34:57;;;;;;;;;44.40;37.80;;;;;16.47;100.00;101260.78;2087630;28;46432;-54
2023/11/16 00:35:58;;;;;;;;;49.00;39.00;;;;;16.47;100.00;101257.22;2087679;28;46531;-57
2023/11/16 00:36:58;;;;;;;;;55.75;46.00;;;;;16.49;100.00;101260.72;2088160;28;46421;-55
2023/11/16 00:37:59;;;;;;;;;44.50;36.00;;;;;16.51;100.00;101264.22;2079429;28;46768;-55
2023/11/16 00:38:59;;;;;;;;;35.50;33.00;;;;;16.52;100.00;101260.63;2071678;28;46251;-52
2023/11/16 00:40:00;;;;;;;;;40.00;35.50;;;;;16.49;100.00;101266.06;2079278;28;46340;-56
2023/11/16 00:41:01;;;;;;;;;74.25;62.00;;;;;16.48;100.00;101262.53;2086899;28;46713;-55
2023/11/16 00:42:02;;;;;;;;;76.00;70.75;;;;;16.48;100.00;101253.63;2087539;28;45748;-56
2023/11/16 00:43:03;;;;;;;;;77.75;72.75;;;;;16.49;100.00;101255.38;2085745;28;46597;-52
2023/11/16 00:44:05;;;;;;;;;70.25;55.25;;;;;16.49;100.00;101253.56;2080235;28;46943;-53
2023/11/16 00:45:06;;;;;;;;;70.80;59.40;;;;;16.49;100.00;101240.16;2079256;28;46955;-54
2023/11/16 00:46:08;;;;;;;;;77.25;69.50;;;;;16.51;100.00;101237.41;2078929;28;46801;-56
2023/11/16 00:47:09;;;;;;;;;101.00;92.33;;;;;16.49;100.00;101234.81;2078177;28;46354;-54
2023/11/16 00:48:09;;;;;;;;;91.50;83.25;;;;;16.49;100.00;101232.13;2071747;28;46589;-53
2023/11/16 00:49:09;;;;;;;;;76.50;69.25;;;;;16.48;100.00;101230.38;2066444;28;46180;-53
2023/11/16 00:50:10;;;;;;;;;75.75;67.75;;;;;16.49;100.00;101234.81;2070976;28;46634;-52
2023/11/16 00:51:12;;;;;;;;;120.00;111.33;;;;;16.49;100.00;101224.09;2077666;28;47038;-55
2023/11/16 00:52:12;;;;;;;;;99.67;95.00;;;;;16.49;100.00;101225.88;2079553;28;46763;-52
2023/11/16 00:53:13;;;;;;;;;71.75;58.75;;;;;16.48;100.00;101225.03;2079303;28;46492;-50
2023/11/16 00:54:14;;;;;;;;;56.00;45.60;;;;;16.49;100.00;101217.84;2079203;28;46604;-55
2023/11/16 00:55:15;;;;;;;;;26.00;23.75;;;;;16.51;100.00;101217.78;2079536;28;46534;-54
2023/11/16 00:56:17;;;;;;;;;54.40;43.80;;;;;16.51;100.00;101215.13;2080935;28;46551;-57
2023/11/16 00:57:18;;;;;;;;;38.80;34.20;;;;;16.48;100.00;101210.75;2088022;28;46759;-57
2023/11/16 00:58:21;;;;;;;;;57.25;47.00;;;;;16.47;100.00;101220.59;2087647;28;46397;-52
2023/11/16 00:59:22;;;;;;;;;56.60;47.00;;;;;16.47;100.00;101217.91;2084577;28;46720;-54
2023/11/16 01:00:24;;;;;;;;;46.40;38.60;;;;;16.46;100.00;101224.22;2081317;28;46689;-56
2023/11/16 01:01:26;;;;;;;;;49.00;40.40;;;;;16.48;100.00;101226.81;2088616;28;46412;-54
2023/11/16 01:02:27;;;;;;;;;55.20;45.20;;;;;16.44;100.00;101230.56;2086343;28;46566;-54
2023/11/16 01:03:27;;;;;;;;;36.00;32.00;;;;;16.41;100.00;101226.19;2087903;28;46943;-57
2023/11/16 01:04:27;;;;;;;;;22.75;22.25;;;;;16.40;100.00;101220.91;2088070;28;46149;-54
2023/11/16 01:05:28;;;;;;;;;39.75;34.50;;;;;16.39;100.00;101221.84;2087723;28;46841;-53
2023/11/16 01:06:29;;;;;;;;;57.00;47.00;;;;;16.37;100.00;101223.69;2087523;28;46327;-51
2023/11/16 01:07:30;;;;;;;;;29.00;28.00;;;;;16.37;100.00;101227.22;2089065;28;46634;-53
2023/11/16 01:08:33;;;;;;;;;34.25;29.75;;;;;16.35;100.00;101222.88;2096027;28;46879;-48
2023/11/16 01:09:35;;;;;;;;;31.60;28.20;;;;;16.35;100.00;101222.88;2090591;28;46589;-54
2023/11/16 01:10:38;;;;;;;;;51.20;40.80;;;;;16.32;100.00;101218.50;2087656;28;46519;-55
2023/11/16 01:11:39;;;;;;;;;44.20;37.80;;;;;16.31;100.00;101222.13;2087824;28;45877;-56
2023/11/16 01:12:39;;;;;;;;;58.20;47.20;;;;;16.29;100.00;101218.63;2087527;28;46764;-53
2023/11/16 01:13:41;;;;;;;;;35.50;31.50;;;;;16.27;100.00;101212.47;2087932;28;46243;-56
2023/11/16 01:14:43;;;;;;;;;25.00;24.20;;;;;16.25;100.00;101211.63;2087546;28;46721;-52
2023/11/16 01:15:44;;;;;;;;;24.40;24.00;;;;;16.22;100.00;101219.78;2087292;28;46453;-54
2023/11/16 01:16:45;;;;;;;;;26.00;25.00;;;;;16.21;100.00;101212.66;2095747;28;45343;-55
2023/11/16 01:17:45;;;;;;;;;38.00;32.00;;;;;16.17;100.00;101214.59;2103916;27;46701;-50
2023/11/16 01:18:46;;;;;;;;;63.50;50.25;;;;;16.18;100.00;101216.34;2105434;28;46062;-51
2023/11/16 01:19:47;;;;;;;;;60.00;48.00;;;;;16.15;100.00;101208.44;2105620;28;46336;-49
2023/11/16 01:20:48;;;;;;;;;61.75;48.00;;;;;16.15;100.00;101207.56;2101343;28;46004;-52
2023/11/16 01:21:55;;;;;;;;;64.20;50.60;;;;;16.14;100.00;101204.00;2086943;28;46263;-51
2023/11/16 01:23:09;;;;;;;;;63.00;51.20;;;;;16.15;100.00;101203.06;2089463;28;46742;-53
2023/11/16 01:24:12;;;;;;;;;49.60;41.80;;;;;16.15;100.00;101202.19;2087102;28;46426;-54
2023/11/16 01:25:15;;;;;;;;;62.80;50.60;;;;;16.15;100.00;101200.41;2083644;28;45857;-56
2023/11/16 01:26:16;;;;;;;;;59.40;47.20;;;;;16.18;100.00;101200.28;2096755;28;46401;-53
2023/11/16 01:27:18;;;;;;;;;58.75;48.25;;;;;16.18;100.00;101205.63;2096440;28;46122;-52
2023/11/16 01:28:18;;;;;;;;;55.20;45.20;;;;;16.18;100.00;101197.59;2096204;28;46916;-54
2023/11/16 01:29:19;;;;;;;;;40.00;34.00;;;;;16.19;100.00;101201.16;2104750;28;46615;-50
2023/11/16 01:30:19;;;;;;;;;50.25;41.75;;;;;16.17;100.00;101193.16;2104839;28;46342;-56
2023/11/16 01:31:19;;;;;;;;;52.50;43.00;;;;;16.16;100.00;101195.91;2096194;28;46779;-52
2023/11/16 01:32:20;;;;;;;;;39.00;34.50;;;;;16.15;100.00;101192.38;2096210;28;46711;-53
2023/11/16 01:33:20;;;;;;;;;45.00;36.50;;;;;16.14;100.00;101190.63;2095100;28;46400;-49
2023/11/16 01:34:22;;;;;;;;;29.00;28.25;;;;;16.15;100.00;101195.03;2088117;28;46357;-54
2023/11/16 01:35:22;;;;;;;;;35.00;32.20;;;;;16.14;100.00;101195.09;2101350;28;46230;-52
2023/11/16 01:36:24;;;;;;;;;27.00;25.50;;;;;16.11;100.00;101185.34;2105258;28;46039;-51
2023/11/16 01:37:24;;;;;;;;;37.00;32.20;;;;;16.09;100.00;101179.19;2104985;28;46764;-52
2023/11/16 01:38:25;;;;;;;;;34.00;31.25;;;;;16.10;100.00;101180.94;2105854;28;46930;-54
2023/11/16 01:39:25;;;;;;;;;35.75;32.00;;;;;16.09;100.00;101179.19;2105783;28;45790;-54
2023/11/16 01:40:27;;;;;;;;;30.50;29.25;;;;;16.08;100.00;101185.47;2105282;28;46483;-54
2023/11/16 01:41:27;;;;;;;;;29.60;29.20;;;;;16.09;100.00;101181.00;2105231;27;46664;-50
2023/11/16 01:42:28;;;;;;;;;25.00;25.00;;;;;16.10;100.00;101172.03;2105242;28;46574;-52
2023/11/16 01:43:28;;;;;;;;;34.00;31.25;;;;;16.11;100.00;101179.13;2103600;28;46694;-55
2023/11/16 01:44:28;;;;;;;;;28.25;25.00;;;;;16.07;100.00;101181.06;2105259;28;46587;-53
2023/11/16 01:45:31;;;;;;;;;28.75;25.50;;;;;16.05;100.00;101176.69;2097394;28;46210;-56
2023/11/16 01:46:33;;;;;;;;;25.00;24.00;;;;;16.05;100.00;101182.91;2102815;28;46958;-52
2023/11/16 01:47:35;;;;;;;;;24.20;24.20;;;;;16.05;100.00;101176.69;2096823;28;47096;-56
2023/11/16 01:48:39;;;;;;;;;26.20;26.20;;;;;15.94;100.00;101179.75;2103733;28;46708;-57
2023/11/16 01:49:43;;;;;;;;;25.60;25.40;;;;;15.97;100.00;101178.75;2103737;28;46633;-54
2023/11/16 01:50:43;;;;;;;;;29.00;27.60;;;;;15.89;100.00;101177.25;2097184;28;46832;-56
2023/11/16 01:51:46;;;;;;;;;26.50;24.00;;;;;15.99;100.00;101174.22;2104876;27;45765;-53
2023/11/16 01:52:46;;;;;;;;;25.80;24.00;;;;;15.99;100.00;101175.09;2104810;28;46483;-53
2023/11/16 01:53:50;;;;;;;;;29.00;26.25;;;;;16.02;100.00;101176.81;2105248;28;46687;-51
2023/11/16 01:54:50;;;;;;;;;27.00;23.60;;;;;16.03;100.00;101174.06;2105030;28;46786;-50
2023/11/16 01:55:54;;;;;;;;;22.25;22.00;;;;;16.05;100.00;101174.00;2105307;28;46716;-56
2023/11/16 01:56:55;;;;;;;;;21.40;21.40;;;;;16.04;100.00;101161.56;2104883;28;46349;-53
2023/11/16 01:57:55;;;;;;;;;19.75;18.75;;;;;16.02;100.00;101158.06;2103792;28;46596;-52
2023/11/16 01:58:59;;;;;;;;;16.25;15.50;;;;;16.04;100.00;101161.56;2105100;28;46379;-54
2023/11/16 01:59:59;;;;;;;;;19.60;18.40;;;;;16.03;100.00;101152.66;2104844;28;46232;-53
2023/11/16 02:01:01;;;;;;;;;25.00;21.75;;;;;16.04;100.00;101150.84;2104869;28;46276;-55
2023/11/16 02:02:05;;;;;;;;;22.40;21.00;;;;;16.02;100.00;101156.25;2096267;28;46788;-54
2023/11/16 02:03:05;;;;;;;;;20.60;20.60;;;;;16.02;100.00;101152.72;2095598;28;46760;-54
2023/11/16 02:04:06;;;;;;;;;23.50;22.25;;;;;16.02;100.00;101145.56;2098078;28;46426;-54
2023/11/16 02:05:08;;;;;;;;;23.75;21.50;;;;;16.02;100.00;101156.25;2104690;28;46766;-55
2023/11/16 02:06:08;;;;;;;;;22.00;22.00;;;;;16.00;100.00;101155.41;2095911;28;46239;-54
2023/11/16 02:07:09;;;;;;;;;21.25;21.25;;;;;16.04;100.00;101156.19;2096112;28;46627;-54
2023/11/16 02:08:09;;;;;;;;;22.25;21.25;;;;;16.04;100.00;101158.88;2103694;27;46845;-56
2023/11/16 02:09:11;;;;;;;;;22.75;21.50;;;;;16.04;100.00;101161.56;2105449;28;46582;-53
2023/11/16 02:10:11;;;;;;;;;27.20;25.20;;;;;16.05;100.00;101157.94;2096080;28;46267;-54
2023/11/16 02:11:11;;;;;;;;;24.00;24.00;;;;;16.06;100.00;101160.56;2095737;28;46841;-54
2023/11/16 02:12:12;;;;;;;;;25.00;22.75;;;;;16.05;100.00;101153.47;2105013;28;46482;-55
2023/11/16 02:13:18;;;;;;;;;25.75;23.25;;;;;16.06;100.00;101160.56;2104666;28;45766;-48
2023/11/16 02:14:18;;;;;;;;;22.20;21.60;;;;;16.07;100.00;101164.13;2105039;28;45857;-54
2023/11/16 02:15:18;;;;;;;;;21.50;21.00;;;;;16.08;100.00;101165.84;2104934;28;46599;-55
2023/11/16 02:16:19;;;;;;;;;22.00;20.75;;;;;16.07;100.00;101169.47;2104976;28;46783;-57
2023/11/16 02:17:21;;;;;;;;;20.00;20.00;;;;;16.06;100.00;101170.41;2095487;28;46645;-53
2023/11/16 02:18:23;;;;;;;;;20.60;19.40;;;;;16.06;100.00;101163.25;2096368;28;46180;-53
2023/11/16 02:19:30;;;;;;;;;21.00;21.00;;;;;16.05;100.00;101169.53;2104702;28;46645;-54
2023/11/16 02:20:31;;;;;;;;;22.40;21.60;;;;;16.03;100.00;101158.00;2104907;28;46863;-48
2023/11/16 02:21:38;;;;;;;;;20.50;19.25;;;;;15.93;100.00;101164.63;2104853;28;46335;-53
2023/11/16 02:22:40;;;;;;;;;19.00;17.80;;;;;16.01;100.00;101149.16;2104984;28;46378;-53
2023/11/16 02:23:42;;;;;;;;;26.20;22.40;;;;;16.01;100.00;101146.50;2103658;28;46432;-53
2023/11/16 02:24:45;;;;;;;;;22.00;20.60;;;;;16.02;100.00;101148.22;2104561;28;46476;-54
2023/11/16 02:25:47;;;;;;;;;20.60;18.80;;;;;16.04;100.00;101138.34;2104013;28;46213;-52
2023/11/16 02:26:47;;;;;;;;;18.20;16.80;;;;;16.04;100.00;101135.66;2105159;28;45695;-54
2023/11/16 02:27:48;;;;;;;;;21.50;19.50;;;;;15.95;100.00;101136.00;2103863;28;46479;-54
2023/11/16 02:28:48;;;;;;;;;20.75;20.75;;;;;15.94;100.00;101136.94;2103783;28;46938;-52
2023/11/16 02:29:50;;;;;;;;;12.00;12.00;;;;;16.03;100.00;101133.03;2105061;28;46169;-52
2023/11/16 02:30:51;;;;;;;;;19.40;19.40;;;;;16.04;100.00;101135.66;2104291;28;46788;-54
2023/11/16 02:31:53;;;;;;;;;18.60;18.20;;;;;16.05;100.00;101125.81;2095777;28;47163;-54
2023/11/16 02:32:53;;;;;;;;;14.20;14.20;;;;;16.05;100.00;101129.38;2096172;28;46224;-53
2023/11/16 02:33:53;;;;;;;;;16.75;15.75;;;;;16.04;100.00;101127.63;2105194;28;46816;-52
2023/11/16 02:34:54;;;;;;;;;15.25;13.00;;;;;16.03;100.00;101125.88;2098479;28;46842;-55
2023/11/16 02:35:54;;;;;;;;;17.75;15.75;;;;;16.02;100.00;101126.81;2097386;28;46872;-52
2023/11/16 02:36:55;;;;;;;;;18.50;16.25;;;;;16.01;100.00;101122.41;2104859;28;46492;-53
2023/11/16 02:37:55;;;;;;;;;16.25;15.25;;;;;16.01;100.00;101124.19;2100996;28;46627;-53
2023/11/16 02:38:55;;;;;;;;;22.75;19.00;;;;;15.99;100.00;101128.72;2096521;28;46154;-51
2023/11/16 02:39:56;;;;;;;;;15.00;15.00;;;;;15.99;100.00;101131.38;2094746;28;46419;-52
2023/11/16 02:40:56;;;;;;;;;20.50;17.50;;;;;15.97;100.00;101127.91;2095844;28;46762;-53
2023/11/16 02:41:59;;;;;;;;;22.25;21.50;;;;;15.98;100.00;101118.94;2104968;28;46558;-53
2023/11/16 02:42:59;;;;;;;;;20.20;20.20;;;;;15.98;100.00;101122.50;2101823;28;46432;-47
2023/11/16 02:44:00;;;;;;;;;17.50;17.50;;;;;15.96;100.00;101124.34;2104582;28;45742;-52
2023/11/16 02:45:00;;;;;;;;;23.80;21.20;;;;;15.94;100.00;101123.53;2096659;28;46655;-51
2023/11/16 02:46:03;;;;;;;;;23.25;22.25;;;;;15.84;100.00;101120.31;2100975;28;46595;-53
2023/11/16 02:47:05;;;;;;;;;24.20;22.20;;;;;15.90;100.00;101119.25;2104778;28;46772;-54
2023/11/16 02:48:09;;;;;;;;;24.20;24.20;;;;;15.92;100.00;101127.22;2096848;28;46362;-55
2023/11/16 02:49:09;;;;;;;;;26.60;24.00;;;;;15.91;100.00;101122.78;2093569;28;46968;-54
2023/11/16 02:50:09;;;;;;;;;23.00;22.50;;;;;15.91;100.00;101122.78;2104595;28;46656;-57
2023/11/16 02:51:10;;;;;;;;;22.75;19.00;;;;;15.91;100.00;101114.75;2104648;27;46505;-54
2023/11/16 02:52:10;;;;;;;;;24.00;21.50;;;;;15.87;100.00;101116.66;2095957;28;46892;-53
2023/11/16 02:53:11;;;;;;;;;28.25;23.25;;;;;15.87;100.00;101109.50;2095904;28;46403;-51
2023/11/16 02:54:11;;;;;;;;;25.00;20.75;;;;;15.85;100.00;101108.69;2104749;28;45974;-53
2023/11/16 02:55:12;;;;;;;;;22.50;22.25;;;;;15.86;100.00;101104.22;2104583;28;46842;-57
2023/11/16 02:56:13;;;;;;;;;23.25;23.25;;;;;15.90;100.00;101105.88;2104459;28;46702;-52
2023/11/16 02:57:13;;;;;;;;;27.00;24.25;;;;;15.89;100.00;101104.13;2104788;28;46273;-48
2023/11/16 02:58:14;;;;;;;;;23.25;21.00;;;;;15.87;100.00;101100.59;2104532;28;47073;-55
2023/11/16 02:59:14;;;;;;;;;24.25;24.25;;;;;15.86;100.00;101096.19;2102867;27;46179;-54
2023/11/16 03:00:15;;;;;;;;;20.75;19.50;;;;;15.86;100.00;101096.19;2103194;28;46257;-53
2023/11/16 03:01:15;;;;;;;;;25.75;21.25;;;;;15.84;100.00;101095.38;2103810;28;46826;-54
2023/11/16 03:02:18;;;;;;;;;22.25;19.50;;;;;15.84;100.00;101098.03;2104458;28;46377;-52
2023/11/16 03:03:18;;;;;;;;;25.20;23.40;;;;;15.81;100.00;101103.53;2104735;27;46938;-51
2023/11/16 03:04:19;;;;;;;;;23.50;22.50;;;;;15.81;100.00;101103.53;2096796;28;46650;-52
2023/11/16 03:05:21;;;;;;;;;22.25;21.00;;;;;15.81;100.00;101104.38;2099866;28;46619;-53
2023/11/16 03:06:21;;;;;;;;;19.60;19.20;;;;;15.80;100.00;101104.44;2105415;27;46457;-50
2023/11/16 03:07:21;;;;;;;;;21.00;19.50;;;;;15.81;100.00;101092.81;2087952;28;46673;-53
2023/11/16 03:08:22;;;;;;;;;21.25;18.25;;;;;15.80;100.00;101091.94;2079905;28;46432;-56
2023/11/16 03:09:22;;;;;;;;;20.00;19.25;;;;;15.80;100.00;101086.59;2084112;28;46890;-53
2023/11/16 03:10:23;;;;;;;;;20.50;18.75;;;;;15.81;100.00;101084.78;2081582;28;45976;-51
2023/11/16 03:11:24;;;;;;;;;19.00;17.80;;;;;15.77;100.00;101078.69;2087152;28;46307;-50
2023/11/16 03:12:24;;;;;;;;;19.75;17.50;;;;;15.69;100.00;101083.44;2093875;28;47378;-52
2023/11/16 03:13:24;;;;;;;;;19.75;16.50;;;;;15.79;100.00;101086.66;2088548;28;46357;-54
2023/11/16 03:14:25;;;;;;;;;17.00;16.25;;;;;15.77;100.00;101085.84;2088302;28;46255;-53
2023/11/16 03:15:25;;;;;;;;;17.00;16.75;;;;;15.67;100.00;101085.31;2088991;28;46470;-53
2023/11/16 03:16:28;;;;;;;;;15.25;15.25;;;;;15.68;100.00;101081.69;2096066;28;46472;-51
2023/11/16 03:17:29;;;;;;;;;16.40;15.60;;;;;15.77;100.00;101075.13;2096340;28;46861;-55
2023/11/16 03:18:30;;;;;;;;;11.80;10.60;;;;;15.67;100.00;101074.59;2096656;28;46823;-53
2023/11/16 03:19:30;;;;;;;;;14.25;14.25;;;;;15.76;100.00;101074.25;2096590;28;47226;-56
2023/11/16 03:20:30;;;;;;;;;16.50;16.50;;;;;15.78;100.00;101067.06;2096616;28;46663;-52
2023/11/16 03:21:30;;;;;;;;;18.00;18.00;;;;;15.79;100.00;101062.56;2097033;28;46793;-54
2023/11/16 03:22:31;;;;;;;;;16.75;16.75;;;;;15.79;100.00;101060.75;2090844;28;46304;-55
2023/11/16 03:23:34;;;;;;;;;16.25;15.25;;;;;15.83;100.00;101061.50;2089211;28;46344;-55
2023/11/16 03:24:34;;;;;;;;;15.60;13.20;;;;;15.84;100.00;101052.56;2097783;28;46567;-51
2023/11/16 03:25:35;;;;;;;;;15.25;15.25;;;;;15.85;100.00;101046.25;2101445;28;46979;-52
2023/11/16 03:26:36;;;;;;;;;15.00;14.20;;;;;15.87;100.00;101049.75;2104758;28;46772;-52
2023/11/16 03:27:36;;;;;;;;;15.25;15.25;;;;;15.86;100.00;101048.88;2088596;28;46135;-50
2023/11/16 03:28:37;;;;;;;;;17.75;17.25;;;;;15.87;100.00;101047.94;2088218;28;46312;-54
2023/11/16 03:29:38;;;;;;;;;10.75;9.00;;;;;15.88;100.00;101048.84;2096562;28;46649;-50
2023/11/16 03:30:38;;;;;;;;;20.20;19.20;;;;;15.87;100.00;101037.25;2096501;28;46717;-48
2023/11/16 03:31:40;;;;;;;;;16.75;16.00;;;;;15.88;100.00;101038.13;2096523;28;46989;-53
2023/11/16 03:32:41;;;;;;;;;12.50;12.00;;;;;15.87;100.00;101041.72;2095869;28;45528;-48
2023/11/16 03:33:42;;;;;;;;;19.40;16.80;;;;;15.85;100.00;101044.47;2070759;28;46446;-52
2023/11/16 03:34:42;;;;;;;;;15.00;14.80;;;;;15.85;100.00;101041.78;2071636;28;46582;-49
2023/11/16 03:35:48;;;;;;;;;15.75;15.00;;;;;15.85;100.00;101035.56;2063455;28;46576;-52
2023/11/16 03:36:49;;;;;;;;;18.80;16.20;;;;;15.85;100.00;101025.72;2064344;28;46745;-54
2023/11/16 03:37:49;;;;;;;;;14.50;12.75;;;;;15.84;100.00;101029.34;2072049;28;46512;-53
2023/11/16 03:38:50;;;;;;;;;12.75;12.75;;;;;15.84;100.00;101020.44;2073448;28;46547;-52
2023/11/16 03:39:50;;;;;;;;;18.00;16.25;;;;;15.84;100.00;101020.44;2071568;28;46981;-55
2023/11/16 03:40:51;;;;;;;;;18.25;14.75;;;;;15.83;100.00;101016.00;2071848;28;46211;-52
2023/11/16 03:41:52;;;;;;;;;17.25;17.25;;;;;15.83;100.00;101008.84;2079837;28;46244;-54
2023/11/16 03:42:52;;;;;;;;;17.40;15.60;;;;;15.82;100.00;101009.78;2079385;28;46680;-54
2023/11/16 03:43:53;;;;;;;;;13.00;12.25;;;;;15.83;100.00;101010.66;2079681;28;46497;-53
2023/11/16 03:44:53;;;;;;;;;17.25;17.25;;;;;15.78;100.00;101004.63;2079700;28;46457;-54
2023/11/16 03:45:54;;;;;;;;;12.25;11.00;;;;;15.76;100.00;101011.84;2071833;28;46715;-50
2023/11/16 03:46:56;;;;;;;;;17.00;16.60;;;;;15.73;100.00;101002.09;2071353;28;47094;-53
2023/11/16 03:47:56;;;;;;;;;16.40;16.20;;;;;15.72;100.00;101008.41;2080298;28;45639;-54
2023/11/16 03:48:56;;;;;;;;;16.25;14.25;;;;;15.72;100.00;101007.53;2062770;28;46426;-52
2023/11/16 03:49:58;;;;;;;;;12.25;12.25;;;;;15.70;100.00;100998.69;2063627;28;46883;-54
2023/11/16 03:50:58;;;;;;;;;19.20;18.80;;;;;15.67;100.00;101007.72;2078703;28;46951;-49
2023/11/16 03:51:59;;;;;;;;;14.75;14.50;;;;;15.92;100.00;100999.59;2079548;28;46626;-52
2023/11/16 03:52:59;;;;;;;;;15.00;15.00;;;;;15.86;100.00;101002.50;2080431;28;46252;-52
2023/11/16 03:53:59;;;;;;;;;16.50;16.50;;;;;15.87;100.00;100994.41;2080143;28;46303;-53
2023/11/16 03:55:00;;;;;;;;;16.00;14.75;;;;;15.88;100.00;100998.00;2079613;28;45948;-54
2023/11/16 03:56:00;;;;;;;;;15.00;14.50;;;;;16.04;100.00;100998.25;2080246;28;46647;-51
2023/11/16 03:57:00;;;;;;;;;14.50;14.50;;;;;15.72;100.00;100991.47;2080132;28;46653;-51
2023/11/16 03:58:01;;;;;;;;;16.00;16.00;;;;;15.69;100.00;100996.94;2075884;28;46301;-50
2023/11/16 03:59:01;;;;;;;;;14.25;13.25;;;;;15.93;100.00;100993.31;2079550;28;46223;-51
2023/11/16 04:00:01;;;;;;;;;13.00;11.50;;;;;15.83;100.00;100984.78;2078782;28;46476;-50
2023/11/16 04:01:02;;;;;;;;;14.67;13.33;;;;;15.76;100.00;100982.41;2084808;28;46636;-55
2023/11/16 04:02:04;;;;;;;;;17.40;14.40;;;;;15.74;100.00;100984.25;2063051;28;47362;-54
2023/11/16 04:03:05;;;;;;;;;14.75;12.50;;;;;15.72;100.00;100978.97;2055317;28;45783;-57
2023/11/16 04:04:10;;;;;;;;;15.00;14.75;;;;;15.72;100.00;100976.28;2046372;28;46848;-53
2023/11/16 04:05:10;;;;;;;;;20.60;15.80;;;;;15.71;100.00;100973.69;2063269;28;46421;-53
2023/11/16 04:06:18;;;;;;;;;13.75;12.75;;;;;15.72;100.00;100973.63;2085176;28;46087;-51
2023/11/16 04:07:18;;;;;;;;;13.80;13.80;;;;;15.71;100.00;100969.19;2071752;28;47127;-52
2023/11/16 04:08:18;;;;;;;;;13.50;12.00;;;;;15.69;100.00;100964.84;2072072;28;46449;-53
2023/11/16 04:09:19;;;;;;;;;12.00;11.50;;;;;15.68;100.00;100963.97;2071528;28;46588;-51
2023/11/16 04:10:20;;;;;;;;;12.25;11.50;;;;;15.66;100.00;100962.28;2077056;28;46666;-49
2023/11/16 04:11:20;;;;;;;;;11.00;10.50;;;;;15.67;100.00;100969.38;2072161;28;46246;-50
2023/11/16 04:12:23;;;;;;;;;13.25;11.25;;;;;15.68;100.00;100971.13;2071499;28;46403;-48
2023/11/16 04:13:23;;;;;;;;;14.20;12.20;;;;;15.67;100.00;100962.22;2075394;28;46722;-53
2023/11/16 04:14:24;;;;;;;;;9.75;9.00;;;;;15.67;100.00;100962.22;2072170;28;46428;-51
2023/11/16 04:15:24;;;;;;;;;14.75;12.75;;;;;15.70;100.00;100966.59;2070691;28;46914;-48
2023/11/16 04:16:25;;;;;;;;;10.75;10.75;;;;;15.67;100.00;100978.28;2072534;28;46462;-52
2023/11/16 04:17:26;;;;;;;;;12.60;11.60;;;;;15.69;100.00;100975.53;2079516;28;46349;-54
2023/11/16 04:18:26;;;;;;;;;15.75;14.00;;;;;15.68;100.00;100974.66;2075111;28;46225;-55
2023/11/16 04:19:27;;;;;;;;;12.00;10.75;;;;;15.68;100.00;100966.66;2078908;28;46539;-52
2023/11/16 04:20:29;;;;;;;;;11.75;10.00;;;;;15.67;100.00;100962.22;2079245;28;46704;-53
2023/11/16 04:21:30;;;;;;;;;10.80;10.80;;;;;15.67;100.00;100956.00;2080027;28;46531;-54
2023/11/16 04:22:30;;;;;;;;;10.50;10.50;;;;;15.67;100.00;100958.69;2077937;28;46814;-51
2023/11/16 04:23:30;;;;;;;;;11.00;10.00;;;;;15.66;100.00;100952.47;2078502;28;46574;-53
2023/11/16 04:24:31;;;;;;;;;10.75;10.00;;;;;15.66;100.00;100949.78;2078243;28;46750;-53
2023/11/16 04:25:33;;;;;;;;;9.00;9.00;;;;;15.64;100.00;100957.00;2079962;28;45499;-52
2023/11/16 04:26:37;;;;;;;;;12.40;9.60;;;;;15.66;100.00;100947.13;2075006;28;46353;-55
2023/11/16 04:27:37;;;;;;;;;11.00;10.40;;;;;15.66;100.00;100947.13;2072287;28;46881;-51
2023/11/16 04:28:38;;;;;;;;;11.50;11.50;;;;;15.67;100.00;100948.84;2079758;28;46542;-53
2023/11/16 04:29:40;;;;;;;;;9.00;8.00;;;;;15.66;100.00;100944.44;2079778;28;46493;-52
2023/11/16 04:30:41;;;;;;;;;11.60;10.80;;;;;15.66;100.00;100944.44;2079346;28;45778;-50
2023/11/16 04:31:42;;;;;;;;;9.75;9.75;;;;;15.66;100.00;100944.44;2071328;28;46555;-54
2023/11/16 04:32:45;;;;;;;;;9.40;9.40;;;;;15.65;100.00;100939.16;2072977;28;46565;-55
2023/11/16 04:33:47;;;;;;;;;13.60;12.40;;;;;15.66;100.00;100943.56;2083095;28;46690;-53
2023/11/16 04:34:47;;;;;;;;;11.80;11.80;;;;;15.63;100.00;100939.22;2087747;28;46454;-54